Time;durP1;ratioP1;P1;durP2;ratioP2;P2;SDS_P1;SDS_P2;PMS_P1;PMS_P2;Temp;Humidity;BMP_temperature;BMP_pressure;BME280_temperature;BME280_humidity;BME280_pressure;Samples;Min_cycle;Max_cycle;Signal;HPM_P1;HPM_P2
2023/10/29 00:00:11;;;;;;;5.20;3.17;;;10.60;99.90;;;;;;5014728;28;20041;-71
2023/10/29 00:02:37;;;;;;;9.07;4.25;;;10.60;99.90;;;;;;5017693;28;20141;-70
2023/10/29 00:05:03;;;;;;;8.52;4.40;;;10.60;99.90;;;;;;5009345;28;20044;-70
2023/10/29 00:07:29;;;;;;;4.05;2.90;;;10.80;99.90;;;;;;5050740;28;20044;-70
2023/10/29 00:09:55;;;;;;;8.88;4.18;;;10.80;99.90;;;;;;5016525;28;20040;-70
2023/10/29 00:12:21;;;;;;;6.47;2.47;;;10.80;99.90;;;;;;5033349;28;20090;-70
2023/10/29 00:14:47;;;;;;;5.90;3.95;;;10.90;99.90;;;;;;5020381;28;20137;-70
2023/10/29 00:17:12;;;;;;;7.68;4.40;;;10.90;99.90;;;;;;5033200;28;20055;-70
2023/10/29 00:19:38;;;;;;;8.60;4.20;;;10.70;99.90;;;;;;5000662;28;20048;-69
2023/10/29 00:22:04;;;;;;;5.00;3.55;;;10.70;99.90;;;;;;5033064;28;20366;-71
2023/10/29 00:24:30;;;;;;;4.97;3.72;;;10.80;99.90;;;;;;5008641;28;20373;-70
2023/10/29 00:26:55;;;;;;;6.60;4.85;;;10.80;99.90;;;;;;5032053;28;20109;-69
2023/10/29 00:29:21;;;;;;;5.25;4.25;;;10.70;99.90;;;;;;5012199;28;20048;-70
2023/10/29 00:31:47;;;;;;;8.73;5.60;;;10.70;99.90;;;;;;5030457;28;20412;-69
2023/10/29 00:34:13;;;;;;;8.35;4.60;;;10.70;99.90;;;;;;5029724;28;20095;-71
2023/10/29 00:36:38;;;;;;;6.90;4.32;;;10.80;99.90;;;;;;4998383;28;20466;-68
2023/10/29 00:39:04;;;;;;;6.20;3.72;;;10.80;99.90;;;;;;4999420;28;20175;-68
2023/10/29 00:41:30;;;;;;;7.85;4.32;;;10.70;99.90;;;;;;5000056;28;20041;-69
2023/10/29 00:43:57;;;;;;;6.15;4.30;;;10.90;99.90;;;;;;5031292;28;20043;-68
2023/10/29 00:46:24;;;;;;;6.22;4.95;;;10.80;99.90;;;;;;5000592;28;20466;-69
2023/10/29 00:48:50;;;;;;;7.15;4.35;;;10.90;99.90;;;;;;5049236;28;20032;-68
2023/10/29 00:51:17;;;;;;;8.05;4.75;;;10.90;99.90;;;;;;5015840;28;20667;-69
2023/10/29 00:53:44;;;;;;;6.50;4.38;;;10.70;99.90;;;;;;5031245;28;20454;-68
2023/10/29 00:56:11;;;;;;;6.68;4.60;;;10.90;99.90;;;;;;5032779;28;20524;-69
2023/10/29 00:58:37;;;;;;;8.70;4.80;;;10.90;99.90;;;;;;5015616;28;20052;-69
2023/10/29 01:01:03;;;;;;;5.18;3.80;;;10.90;99.90;;;;;;5033005;28;20051;-69
2023/10/29 01:03:29;;;;;;;7.13;4.53;;;10.90;99.90;;;;;;5016113;28;20041;-69
2023/10/29 01:05:56;;;;;;;9.10;5.30;;;11.00;99.90;;;;;;5031533;28;20206;-69
2023/10/29 01:08:23;;;;;;;6.20;5.60;;;10.70;99.90;;;;;;5031781;28;20558;-70
2023/10/29 01:10:51;;;;;;;5.18;3.85;;;11.00;99.90;;;;;;5032846;28;20060;-69
2023/10/29 01:13:18;;;;;;;8.75;6.30;;;11.00;99.90;;;;;;5031927;28;20106;-69
2023/10/29 01:15:43;;;;;;;7.22;4.75;;;10.90;99.90;;;;;;5015757;28;20063;-69
2023/10/29 01:18:09;;;;;;;6.57;5.85;;;10.90;99.90;;;;;;5014600;28;20040;-70
2023/10/29 01:20:35;;;;;;;6.22;5.50;;;11.10;99.90;;;;;;5008953;28;20075;-71
2023/10/29 01:23:01;;;;;;;7.68;5.95;;;10.90;99.90;;;;;;4998702;28;20558;-71
2023/10/29 01:25:27;;;;;;;7.68;5.75;;;11.10;99.90;;;;;;5031221;28;20212;-69
2023/10/29 01:27:53;;;;;;;7.38;5.10;;;10.70;99.90;;;;;;5014058;28;20040;-70
2023/10/29 01:30:19;;;;;;;7.05;4.38;;;10.70;99.90;;;;;;5015498;28;20182;-69
2023/10/29 01:32:45;;;;;;;5.35;4.85;;;11.10;99.90;;;;;;5032274;28;20040;-69
2023/10/29 01:35:10;;;;;;;6.57;5.35;;;10.80;99.90;;;;;;5030979;28;20052;-69
2023/10/29 01:37:36;;;;;;;8.45;5.70;;;10.80;99.90;;;;;;5031195;28;20033;-70
2023/10/29 01:40:03;;;;;;;7.28;6.05;;;10.80;99.90;;;;;;5011134;28;20857;-69
2023/10/29 01:42:29;;;;;;;8.07;5.97;;;11.10;99.90;;;;;;5031810;28;20044;-71
2023/10/29 01:44:55;;;;;;;9.18;6.22;;;10.80;99.90;;;;;;5031108;28;20471;-70
2023/10/29 01:47:21;;;;;;;6.70;5.85;;;11.20;99.90;;;;;;5014503;28;20028;-69
2023/10/29 01:49:46;;;;;;;7.03;5.40;;;10.80;99.90;;;;;;5029539;28;20217;-69
2023/10/29 01:52:12;;;;;;;6.40;5.72;;;11.40;99.90;;;;;;4999484;28;20044;-68
2023/10/29 01:54:38;;;;;;;7.75;6.70;;;11.00;99.90;;;;;;5029881;28;20048;-70
2023/10/29 01:57:04;;;;;;;7.43;5.93;;;11.00;99.90;;;;;;5011906;28;20079;-69
2023/10/29 01:59:30;;;;;;;7.55;6.25;;;11.40;99.90;;;;;;5015098;28;20048;-70
2023/10/29 02:01:56;;;;;;;6.43;5.22;;;11.50;99.90;;;;;;4981620;28;20059;-69
2023/10/29 02:04:26;;;;;;;6.43;5.72;;;11.30;99.90;;;;;;5032534;28;20602;-68
2023/10/29 02:06:55;;;;;;;5.63;3.90;;;11.10;99.90;;;;;;5032319;28;20044;-69
2023/10/29 02:09:21;;;;;;;7.35;4.90;;;11.40;99.90;;;;;;5032333;28;20146;-70
2023/10/29 02:11:46;;;;;;;6.85;4.63;;;11.40;99.90;;;;;;5031967;28;20171;-68
2023/10/29 02:14:12;;;;;;;5.30;3.88;;;11.50;99.90;;;;;;5005322;28;20113;-70
2023/10/29 02:16:38;;;;;;;4.35;3.95;;;11.70;99.90;;;;;;5032069;28;20049;-70
2023/10/29 02:19:04;;;;;;;4.72;4.25;;;11.30;99.90;;;;;;4998664;28;20040;-70
2023/10/29 02:21:30;;;;;;;6.32;4.50;;;11.30;99.90;;;;;;5016098;28;20047;-68
2023/10/29 02:23:56;;;;;;;6.03;4.72;;;11.70;99.90;;;;;;4999035;28;20048;-68
2023/10/29 02:26:22;;;;;;;6.28;4.47;;;11.40;99.90;;;;;;5030829;28;20124;-69
2023/10/29 02:28:49;;;;;;;7.50;4.32;;;11.80;99.90;;;;;;4983638;28;20041;-69
2023/10/29 02:31:19;;;;;;;4.47;3.50;;;11.90;99.90;;;;;;5030565;28;20041;-69
2023/10/29 02:33:44;;;;;;;3.47;3.17;;;11.90;99.90;;;;;;5014566;28;20047;-68
2023/10/29 02:36:10;;;;;;;4.72;3.60;;;11.60;99.90;;;;;;5015148;28;20056;-69
2023/10/29 02:38:40;;;;;;;4.88;3.30;;;12.10;99.90;;;;;;5014063;28;20048;-69
2023/10/29 02:41:06;;;;;;;6.00;3.20;;;11.90;99.90;;;;;;5032016;28;20053;-68
2023/10/29 02:43:32;;;;;;;3.65;3.05;;;11.80;99.90;;;;;;5009578;28;20403;-70
2023/10/29 02:45:58;;;;;;;4.85;2.90;;;12.10;99.90;;;;;;5015751;28;20036;-68
2023/10/29 02:48:25;;;;;;;3.58;2.42;;;11.90;99.90;;;;;;5031905;28;20036;-69
2023/10/29 02:50:51;;;;;;;4.07;2.17;;;12.00;99.90;;;;;;5031810;28;20117;-68
2023/10/29 02:53:17;;;;;;;3.47;2.17;;;12.20;99.90;;;;;;5035619;28;20097;-68
2023/10/29 02:55:43;;;;;;;5.65;2.50;;;12.00;99.90;;;;;;5016590;28;20123;-68
2023/10/29 02:58:09;;;;;;;2.60;2.22;;;12.20;99.90;;;;;;5036934;28;20651;-69
2023/10/29 03:00:34;;;;;;;3.83;2.20;;;12.10;99.90;;;;;;5003472;28;20052;-70
2023/10/29 03:03:00;;;;;;;3.15;2.05;;;12.30;99.90;;;;;;5016864;28;20503;-68
2023/10/29 03:05:26;;;;;;;4.25;2.10;;;12.30;99.90;;;;;;5035968;28;20024;-69
2023/10/29 03:07:51;;;;;;;2.47;1.35;;;12.20;99.90;;;;;;5035606;28;20044;-69
2023/10/29 03:10:17;;;;;;;2.90;1.73;;;12.30;99.90;;;;;;5035318;28;20048;-70
2023/10/29 03:12:43;;;;;;;3.88;1.52;;;12.20;99.90;;;;;;5035861;28;20043;-68
2023/10/29 03:15:09;;;;;;;3.85;1.40;;;12.30;99.90;;;;;;5007945;28;20540;-68
2023/10/29 03:17:35;;;;;;;3.85;1.38;;;12.40;99.90;;;;;;5014827;28;20048;-68
2023/10/29 03:20:01;;;;;;;4.15;1.45;;;12.20;99.90;;;;;;5018149;28;20123;-68
2023/10/29 03:22:26;;;;;;;5.07;1.95;;;12.30;99.90;;;;;;5017860;28;20040;-68
2023/10/29 03:24:52;;;;;;;2.97;1.48;;;12.10;99.90;;;;;;5002064;28;20045;-69
2023/10/29 03:27:18;;;;;;;3.47;1.77;;;12.40;99.90;;;;;;5015975;28;20052;-68
2023/10/29 03:29:43;;;;;;;4.07;1.20;;;12.20;99.90;;;;;;5034808;28;20037;-68
2023/10/29 03:32:09;;;;;;;3.58;1.88;;;12.40;99.90;;;;;;4987036;28;20285;-70
2023/10/29 03:34:35;;;;;;;4.10;1.60;;;12.40;99.90;;;;;;5017699;28;20659;-68
2023/10/29 03:37:01;;;;;;;2.60;1.23;;;12.30;99.90;;;;;;5052851;28;20068;-69
2023/10/29 03:39:30;;;;;;;3.22;1.50;;;12.30;99.90;;;;;;5035600;28;20132;-70
2023/10/29 03:41:56;;;;;;;5.28;1.38;;;12.50;99.90;;;;;;4999440;28;20083;-68
2023/10/29 03:44:22;;;;;;;2.13;1.20;;;12.40;99.90;;;;;;5008711;28;20132;-68
2023/10/29 03:46:52;;;;;;;4.38;1.40;;;12.40;99.90;;;;;;5012014;28;20250;-70
2023/10/29 03:49:20;;;;;;;5.82;1.67;;;12.40;99.90;;;;;;5011434;28;20747;-70
2023/10/29 03:51:47;;;;;;;3.22;1.67;;;12.40;99.90;;;;;;5019590;28;20388;-70
2023/10/29 03:54:13;;;;;;;4.15;1.20;;;12.30;99.90;;;;;;5032884;28;20047;-69
2023/10/29 03:56:39;;;;;;;2.65;1.10;;;12.40;99.90;;;;;;5014618;28;20040;-71
2023/10/29 03:59:05;;;;;;;2.92;0.80;;;12.20;99.90;;;;;;5016636;28;20044;-68
2023/10/29 04:01:32;;;;;;;2.42;0.85;;;12.30;99.90;;;;;;5033774;28;20048;-69
2023/10/29 04:03:58;;;;;;;2.88;0.60;;;12.30;99.90;;;;;;5017003;28;20142;-68
2023/10/29 04:06:24;;;;;;;3.20;0.75;;;12.50;99.90;;;;;;5006589;28;20113;-70
2023/10/29 04:08:50;;;;;;;3.40;0.90;;;12.50;99.90;;;;;;5010094;28;20110;-70
2023/10/29 04:11:15;;;;;;;3.50;0.70;;;12.50;99.90;;;;;;5011253;28;20440;-69
2023/10/29 04:13:41;;;;;;;2.47;0.60;;;12.50;99.90;;;;;;5014105;28;20056;-67
2023/10/29 04:16:07;;;;;;;2.25;0.50;;;12.50;99.90;;;;;;5011838;28;20123;-67
2023/10/29 04:18:33;;;;;;;2.88;0.75;;;12.60;99.90;;;;;;5013704;28;20427;-69
2023/10/29 04:21:08;;;;;;;4.07;0.57;;;12.60;99.90;;;;;;5012521;28;20172;-68
2023/10/29 04:23:36;;;;;;;3.40;0.70;;;12.60;99.90;;;;;;5002842;28;20148;-69
2023/10/29 04:26:02;;;;;;;2.47;0.60;;;12.70;99.90;;;;;;5028673;28;20044;-70
2023/10/29 04:28:28;;;;;;;2.75;0.73;;;12.60;99.90;;;;;;5009799;28;20056;-70
2023/10/29 04:30:55;;;;;;;2.10;0.60;;;12.60;99.90;;;;;;5013608;28;20475;-69
2023/10/29 04:33:22;;;;;;;1.80;0.60;;;12.60;99.90;;;;;;5013696;28;20076;-68
2023/10/29 04:35:47;;;;;;;4.40;0.80;;;12.80;99.90;;;;;;5014261;28;20442;-68
2023/10/29 04:38:13;;;;;;;3.17;0.55;;;12.70;99.90;;;;;;5012504;28;20051;-70
2023/10/29 04:40:39;;;;;;;3.08;0.65;;;12.70;99.90;;;;;;5014460;28;20102;-69
2023/10/29 04:43:04;;;;;;;2.53;0.82;;;12.60;99.90;;;;;;5012409;28;20033;-71
2023/10/29 04:45:30;;;;;;;1.77;0.68;;;12.60;99.90;;;;;;5029524;28;20230;-68
2023/10/29 04:47:56;;;;;;;4.40;0.50;;;12.70;99.90;;;;;;5012521;28;20119;-69
2023/10/29 04:50:21;;;;;;;3.65;0.50;;;12.60;99.90;;;;;;5012806;28;20042;-68
2023/10/29 04:52:47;;;;;;;4.00;0.60;;;12.70;99.90;;;;;;5029885;28;20033;-69
2023/10/29 04:55:13;;;;;;;3.13;0.73;;;12.60;99.90;;;;;;5012857;28;20037;-70
2023/10/29 04:57:38;;;;;;;5.50;2.25;;;12.70;99.90;;;;;;4994135;28;20501;-69
2023/10/29 05:00:05;;;;;;;4.72;1.40;;;12.70;99.90;;;;;;5029329;28;20469;-69
2023/10/29 05:02:31;;;;;;;3.63;0.68;;;12.70;99.90;;;;;;5012575;28;20048;-70
2023/10/29 05:04:56;;;;;;;2.75;0.93;;;12.80;99.90;;;;;;5028168;28;20052;-69
2023/10/29 05:07:22;;;;;;;5.07;0.65;;;12.60;99.90;;;;;;4994908;28;20488;-69
2023/10/29 05:09:48;;;;;;;4.20;0.50;;;12.30;99.90;;;;;;5026620;28;20076;-73
2023/10/29 05:12:15;;;;;;;4.15;0.35;;;12.50;99.90;;;;;;4998126;28;20044;-70
2023/10/29 05:14:40;;;;;;;1.00;0.20;;;12.30;99.90;;;;;;5027709;28;20068;-69
2023/10/29 05:17:06;;;;;;;2.70;0.32;;;12.00;99.90;;;;;;5028470;28;20121;-71
2023/10/29 05:19:32;;;;;;;1.70;0.20;;;11.60;99.90;;;;;;5011823;28;20047;-69
2023/10/29 05:21:58;;;;;;;2.33;0.20;;;11.30;99.90;;;;;;5011527;28;20045;-70
2023/10/29 05:24:23;;;;;;;1.70;0.10;;;11.10;99.90;;;;;;5011145;28;20563;-68
2023/10/29 05:26:49;;;;;;;3.33;0.20;;;11.00;99.90;;;;;;5012093;28;20535;-70
2023/10/29 05:29:16;;;;;;;2.53;0.20;;;11.30;99.90;;;;;;5019434;28;20124;-69
2023/10/29 05:31:42;;;;;;;2.20;0.20;;;10.90;99.90;;;;;;4995392;28;20104;-69
2023/10/29 05:34:07;;;;;;;2.15;0.20;;;11.00;99.90;;;;;;5012962;28;20131;-70
2023/10/29 05:36:33;;;;;;;3.83;0.20;;;10.90;99.90;;;;;;5003561;28;20053;-69
2023/10/29 05:38:59;;;;;;;2.33;0.20;;;10.90;99.90;;;;;;5011632;28;20143;-69
2023/10/29 05:41:25;;;;;;;1.50;0.20;;;10.90;99.90;;;;;;5028609;28;20048;-70
2023/10/29 05:43:51;;;;;;;2.08;0.30;;;11.30;99.90;;;;;;5013465;28;20280;-70
2023/10/29 05:46:16;;;;;;;1.50;0.28;;;11.30;99.90;;;;;;5013469;28;20102;-69
2023/10/29 05:48:42;;;;;;;2.67;0.20;;;11.10;99.90;;;;;;5029460;28;20275;-69
2023/10/29 05:51:12;;;;;;;4.30;0.30;;;10.90;99.90;;;;;;4995856;28;20079;-70
2023/10/29 05:53:39;;;;;;;3.60;0.30;;;11.30;99.90;;;;;;5007944;28;20114;-68
2023/10/29 05:56:05;;;;;;;2.47;0.30;;;11.40;99.90;;;;;;4997547;28;20287;-69
2023/10/29 05:58:31;;;;;;;1.52;0.20;;;11.60;99.90;;;;;;5029091;28;20048;-69
2023/10/29 06:00:57;;;;;;;2.35;0.30;;;11.30;99.90;;;;;;4972912;28;20325;-70
2023/10/29 06:03:24;;;;;;;1.75;0.30;;;11.60;99.90;;;;;;5012970;28;20079;-69
2023/10/29 06:05:51;;;;;;;4.00;0.30;;;11.80;99.90;;;;;;5011959;28;20367;-69
2023/10/29 06:08:17;;;;;;;1.73;0.30;;;11.30;99.90;;;;;;5011793;28;20427;-70
2023/10/29 06:10:43;;;;;;;2.22;0.30;;;11.80;99.90;;;;;;5015093;28;20569;-69
2023/10/29 06:13:09;;;;;;;2.00;0.30;;;11.30;99.90;;;;;;5030551;28;20036;-69
2023/10/29 06:15:36;;;;;;;2.15;0.20;;;11.50;99.90;;;;;;5025382;28;20307;-69
2023/10/29 06:18:04;;;;;;;1.42;0.20;;;11.40;99.90;;;;;;5013146;28;20528;-67
2023/10/29 06:20:30;;;;;;;1.88;0.20;;;11.50;99.90;;;;;;5031011;28;20052;-69
2023/10/29 06:22:55;;;;;;;2.83;0.20;;;11.60;99.90;;;;;;5030047;28;20170;-69
2023/10/29 06:25:21;;;;;;;3.83;0.28;;;11.60;99.90;;;;;;5032871;28;20083;-69
2023/10/29 06:27:47;;;;;;;2.58;0.30;;;11.60;99.90;;;;;;5036117;28;20125;-69
2023/10/29 06:30:13;;;;;;;1.42;0.20;;;11.90;99.90;;;;;;5012967;28;20296;-68
2023/10/29 06:32:39;;;;;;;2.45;0.22;;;11.70;99.90;;;;;;5053672;28;20040;-68
2023/10/29 06:35:06;;;;;;;4.20;0.20;;;11.50;99.90;;;;;;5034810;28;20341;-69
2023/10/29 06:37:32;;;;;;;2.92;0.40;;;11.90;99.90;;;;;;5011701;28;20289;-69
2023/10/29 06:39:57;;;;;;;2.03;0.40;;;11.90;99.90;;;;;;5013307;28;20404;-69
2023/10/29 06:42:23;;;;;;;3.53;0.30;;;11.90;99.90;;;;;;5020345;28;20457;-68
2023/10/29 06:44:49;;;;;;;2.63;0.30;;;12.00;99.90;;;;;;5023117;28;20668;-68
2023/10/29 06:47:15;;;;;;;2.50;0.60;;;12.00;99.90;;;;;;5039065;28;20070;-69
2023/10/29 06:49:41;;;;;;;2.40;0.28;;;12.10;99.90;;;;;;5022336;28;20055;-68
2023/10/29 06:52:07;;;;;;;3.70;0.30;;;12.20;99.90;;;;;;5039516;28;20051;-68
2023/10/29 06:54:34;;;;;;;4.55;0.30;;;12.20;99.90;;;;;;5039497;28;20613;-70
2023/10/29 06:57:00;;;;;;;2.20;0.28;;;12.10;99.90;;;;;;5005287;28;20076;-69
2023/10/29 06:59:28;;;;;;;2.92;0.25;;;12.10;99.90;;;;;;5037264;28;20532;-69
2023/10/29 07:01:56;;;;;;;3.63;0.52;;;12.00;99.90;;;;;;5022327;28;20051;-69
2023/10/29 07:04:22;;;;;;;3.00;0.30;;;12.20;99.90;;;;;;5006417;28;20086;-69
2023/10/29 07:06:49;;;;;;;4.30;0.77;;;12.10;99.90;;;;;;5006005;28;20040;-71
2023/10/29 07:09:15;;;;;;;3.00;0.30;;;11.90;99.90;;;;;;5037966;28;20048;-71
2023/10/29 07:11:43;;;;;;;4.63;0.47;;;12.20;99.90;;;;;;5035752;28;20052;-70
2023/10/29 07:14:09;;;;;;;2.47;0.30;;;12.10;99.90;;;;;;5021675;28;20047;-71
2023/10/29 07:16:35;;;;;;;1.73;0.20;;;11.90;99.90;;;;;;5040090;28;20048;-71
2023/10/29 07:19:01;;;;;;;1.80;0.20;;;12.10;99.90;;;;;;5022477;28;20044;-70
2023/10/29 07:21:27;;;;;;;4.32;0.20;;;12.20;99.90;;;;;;5037773;28;20041;-70
2023/10/29 07:23:53;;;;;;;2.50;0.20;;;12.10;99.90;;;;;;5004142;28;20036;-70
2023/10/29 07:26:18;;;;;;;2.80;0.35;;;12.10;99.90;;;;;;5037148;28;20849;-70
2023/10/29 07:28:44;;;;;;;1.65;0.10;;;12.20;99.90;;;;;;5003309;28;20044;-70
2023/10/29 07:31:10;;;;;;;2.22;0.25;;;12.40;99.90;;;;;;5020193;28;20079;-71
2023/10/29 07:33:36;;;;;;;1.95;0.20;;;12.40;99.90;;;;;;5017508;28;20347;-71
2023/10/29 07:36:05;;;;;;;2.40;0.20;;;12.60;99.90;;;;;;5020860;28;20266;-70
2023/10/29 07:38:30;;;;;;;2.97;0.20;;;12.70;99.90;;;;;;5014284;28;20082;-69
2023/10/29 07:40:56;;;;;;;2.95;0.25;;;12.70;99.90;;;;;;5021326;28;20066;-71
2023/10/29 07:43:22;;;;;;;1.48;0.20;;;12.80;99.90;;;;;;5037527;28;20048;-70
2023/10/29 07:45:51;;;;;;;1.92;0.20;;;12.90;99.90;;;;;;5021481;28;20055;-69
2023/10/29 07:48:18;;;;;;;1.55;0.20;;;13.00;99.90;;;;;;5024692;28;20051;-68
2023/10/29 07:50:53;;;;;;;3.33;0.20;;;13.00;99.90;;;;;;5040367;28;20055;-71
2023/10/29 07:53:19;;;;;;;1.60;0.13;;;13.10;99.90;;;;;;5024754;28;20044;-70
2023/10/29 07:55:45;;;;;;;3.15;0.20;;;13.00;99.90;;;;;;5059070;28;20067;-69
2023/10/29 07:58:11;;;;;;;2.95;0.20;;;13.10;99.90;;;;;;5037854;28;20049;-68
2023/10/29 08:00:36;;;;;;;2.83;0.30;;;13.20;99.90;;;;;;5023045;28;20048;-70
2023/10/29 08:03:02;;;;;;;2.45;0.35;;;13.30;99.90;;;;;;5039155;28;20213;-70
2023/10/29 08:05:28;;;;;;;1.67;0.10;;;13.30;99.90;;;;;;5038498;28;20333;-70
2023/10/29 08:07:54;;;;;;;2.83;0.20;;;13.30;99.90;;;;;;5023254;28;20074;-70
2023/10/29 08:10:19;;;;;;;2.92;0.30;;;13.30;99.90;;;;;;5016873;28;20091;-70
2023/10/29 08:12:45;;;;;;;0.90;0.20;;;13.30;99.90;;;;;;5039897;28;20124;-71
2023/10/29 08:15:12;;;;;;;2.33;0.17;;;13.30;99.90;;;;;;5055297;28;20499;-70
2023/10/29 08:17:38;;;;;;;2.03;0.20;;;13.30;99.90;;;;;;5004580;28;20349;-69
2023/10/29 08:20:04;;;;;;;3.50;0.20;;;13.40;99.90;;;;;;5005067;28;20043;-70
2023/10/29 08:22:29;;;;;;;2.47;0.20;;;13.60;99.90;;;;;;5038638;28;20033;-70
2023/10/29 08:24:56;;;;;;;2.97;0.30;;;13.70;99.90;;;;;;5039523;28;20048;-70
2023/10/29 08:27:22;;;;;;;0.98;0.10;;;13.90;99.90;;;;;;5015390;28;20083;-70
2023/10/29 08:29:49;;;;;;;3.97;0.30;;;14.20;99.90;;;;;;5039947;28;20455;-70
2023/10/29 08:32:15;;;;;;;3.35;0.20;;;14.20;99.90;;;;;;5038941;28;20244;-71
2023/10/29 08:34:41;;;;;;;3.58;0.20;;;14.00;99.90;;;;;;5020991;28;20046;-70
2023/10/29 08:37:07;;;;;;;2.15;0.20;;;13.90;99.90;;;;;;5020650;28;20516;-71
2023/10/29 08:39:33;;;;;;;3.75;0.50;;;13.90;99.90;;;;;;5021905;28;20041;-71
2023/10/29 08:42:00;;;;;;;3.03;0.20;;;13.90;99.90;;;;;;5021031;28;20453;-70
2023/10/29 08:44:27;;;;;;;2.20;0.20;;;14.00;99.90;;;;;;5038834;28;20036;-71
2023/10/29 08:46:53;;;;;;;4.07;0.22;;;14.00;99.90;;;;;;5005146;28;20033;-70
2023/10/29 08:49:18;;;;;;;5.72;0.32;;;14.20;99.90;;;;;;5037478;28;20329;-70
2023/10/29 08:51:44;;;;;;;2.00;0.20;;;14.30;99.90;;;;;;5023617;28;20048;-70
2023/10/29 08:54:10;;;;;;;5.40;0.30;;;14.40;99.90;;;;;;5037870;28;20040;-70
2023/10/29 08:56:36;;;;;;;1.83;0.20;;;14.60;99.90;;;;;;5038377;28;20055;-69
2023/10/29 08:59:05;;;;;;;4.90;0.25;;;14.90;99.90;;;;;;5020085;28;20418;-70
2023/10/29 09:01:32;;;;;;;2.80;0.20;;;15.00;99.90;;;;;;5036111;28;20228;-69
2023/10/29 09:03:57;;;;;;;2.72;0.40;;;15.10;99.90;;;;;;5019948;28;20383;-71
2023/10/29 09:06:24;;;;;;;4.53;0.50;;;15.40;99.90;;;;;;5037254;28;20037;-69
2023/10/29 09:08:50;;;;;;;3.97;0.70;;;15.80;99.90;;;;;;5037801;28;20811;-71
2023/10/29 09:11:17;;;;;;;3.13;0.40;;;15.90;99.90;;;;;;5020569;28;20048;-71
2023/10/29 09:13:42;;;;;;;3.65;0.25;;;15.50;99.90;;;;;;5037187;28;20131;-71
2023/10/29 09:16:08;;;;;;;4.90;0.30;;;15.50;99.90;;;;;;5036840;28;20164;-71
2023/10/29 09:18:34;;;;;;;2.95;0.30;;;15.60;99.90;;;;;;5000805;28;20574;-70
2023/10/29 09:21:08;;;;;;;3.20;0.20;;;15.30;99.90;;;;;;5101099;27;20496;-68
2023/10/29 09:23:34;;;;;;;4.45;0.20;;;14.90;99.90;;;;;;5088351;28;20127;-71
2023/10/29 09:26:00;;;;;;;5.93;0.75;;;14.80;99.90;;;;;;5089242;28;20056;-69
2023/10/29 09:28:26;;;;;;;2.33;0.30;;;14.80;99.90;;;;;;5086966;28;20047;-70
2023/10/29 09:30:52;;;;;;;3.38;0.30;;;14.70;99.90;;;;;;5069767;28;20071;-70
2023/10/29 09:33:18;;;;;;;4.82;0.40;;;14.90;99.90;;;;;;5087455;28;20039;-69
2023/10/29 09:35:44;;;;;;;3.03;0.20;;;15.00;99.90;;;;;;5086070;28;20601;-72
2023/10/29 09:38:09;;;;;;;3.00;0.20;;;14.90;99.90;;;;;;5069412;28;20062;-71
2023/10/29 09:40:36;;;;;;;3.08;0.20;;;14.80;99.90;;;;;;5068315;28;20040;-68
2023/10/29 09:43:08;;;;;;;3.53;0.30;;;14.80;99.90;;;;;;5089388;28;20464;-68
2023/10/29 09:45:38;;;;;;;3.15;0.68;;;15.40;99.90;;;;;;5088429;28;20653;-67
2023/10/29 09:48:07;;;;;;;4.55;0.38;;;15.90;99.90;;;;;;5085941;28;20079;-68
2023/10/29 09:50:33;;;;;;;6.80;0.30;;;16.30;99.90;;;;;;5069749;28;20055;-69
2023/10/29 09:53:01;;;;;;;2.47;0.30;;;16.50;99.90;;;;;;5087874;28;20065;-70
2023/10/29 09:55:29;;;;;;;4.93;0.30;;;16.60;99.90;;;;;;5087022;28;20043;-73
2023/10/29 09:57:55;;;;;;;3.58;0.30;;;16.40;99.90;;;;;;5067866;28;20047;-69
2023/10/29 10:00:20;;;;;;;3.17;0.30;;;16.60;99.90;;;;;;5067470;28;20655;-68
2023/10/29 10:02:57;;;;;;;3.20;0.30;;;16.20;99.90;;;;;;5085701;28;20715;-68
2023/10/29 10:05:25;;;;;;;1.52;0.28;;;16.10;99.90;;;;;;5085358;28;20051;-67
2023/10/29 10:07:52;;;;;;;5.80;0.30;;;15.80;99.90;;;;;;5085169;28;20513;-68
2023/10/29 10:10:21;;;;;;;3.58;0.40;;;15.40;99.90;;;;;;5085242;28;20056;-72
2023/10/29 10:12:48;;;;;;;2.97;0.20;;;15.30;99.90;;;;;;5084321;28;20054;-69
2023/10/29 10:15:16;;;;;;;2.70;0.30;;;15.40;99.90;;;;;;5086468;28;20056;-69
2023/10/29 10:17:57;;;;;;;5.65;0.30;;;15.30;99.90;;;;;;5086305;28;20406;-68
2023/10/29 10:20:22;;;;;;;4.68;0.30;;;15.50;99.90;;;;;;5084452;28;20059;-68
2023/10/29 10:23:01;;;;;;;3.25;0.20;;;16.00;99.90;;;;;;5085948;28;20094;-67
2023/10/29 10:25:29;;;;;;;2.67;0.32;;;16.10;99.90;;;;;;5086436;28;20071;-68
2023/10/29 10:27:56;;;;;;;3.72;0.30;;;16.60;99.90;;;;;;5087612;28;20077;-68
2023/10/29 10:30:26;;;;;;;4.75;0.35;;;16.60;99.90;;;;;;5084166;28;20192;-68
2023/10/29 10:32:53;;;;;;;3.58;0.43;;;16.50;99.90;;;;;;5073522;28;20059;-68
2023/10/29 10:35:19;;;;;;;4.55;0.52;;;16.30;99.90;;;;;;5071590;28;20088;-70
2023/10/29 10:37:54;;;;;;;3.38;0.30;;;16.30;99.90;;;;;;5074419;28;20040;-69
2023/10/29 10:40:26;;;;;;;3.10;0.38;;;16.10;99.90;;;;;;5073873;28;20445;-67
2023/10/29 10:42:56;;;;;;;3.20;0.10;;;16.00;99.90;;;;;;5073892;28;20054;-71
2023/10/29 10:45:29;;;;;;;3.83;0.20;;;15.70;99.90;;;;;;5072837;28;20091;-72
2023/10/29 10:47:58;;;;;;;2.67;0.30;;;15.70;99.90;;;;;;5073742;28;20575;-70
2023/10/29 10:50:25;;;;;;;5.28;0.30;;;16.00;99.90;;;;;;5072554;28;20055;-70
2023/10/29 10:52:52;;;;;;;3.53;0.30;;;16.40;99.90;;;;;;5070940;28;20122;-69
2023/10/29 10:55:19;;;;;;;5.07;0.30;;;16.30;99.90;;;;;;5070739;28;20048;-69
2023/10/29 10:57:44;;;;;;;2.92;0.30;;;16.10;99.90;;;;;;5072162;28;20044;-69
2023/10/29 11:00:12;;;;;;;5.57;0.40;;;16.00;99.90;;;;;;5071236;28;20079;-72
2023/10/29 11:02:41;;;;;;;4.97;0.40;;;15.90;99.90;;;;;;5074473;28;20044;-69
2023/10/29 11:05:09;;;;;;;3.47;0.30;;;15.90;99.90;;;;;;5072418;28;20055;-70
2023/10/29 11:07:37;;;;;;;5.07;0.30;;;16.10;99.90;;;;;;5073133;28;20044;-71
2023/10/29 11:10:03;;;;;;;1.50;0.20;;;16.00;99.90;;;;;;5072522;28;20545;-70
2023/10/29 11:12:36;;;;;;;4.30;0.35;;;16.00;99.90;;;;;;5072241;28;20067;-69
2023/10/29 11:15:19;;;;;;;3.22;0.40;;;15.80;99.90;;;;;;5071620;28;20113;-68
2023/10/29 11:17:52;;;;;;;3.60;0.30;;;15.80;99.90;;;;;;5071968;28;20701;-70
2023/10/29 11:20:36;;;;;;;5.63;0.30;;;16.10;99.90;;;;;;5070642;28;20063;-70
2023/10/29 11:23:09;;;;;;;4.68;0.30;;;16.20;99.90;;;;;;5071201;28;20075;-73
2023/10/29 11:25:36;;;;;;;5.32;0.40;;;16.40;99.90;;;;;;5070696;28;20044;-73
2023/10/29 11:28:03;;;;;;;3.33;0.38;;;16.50;99.90;;;;;;5071403;28;20055;-70
2023/10/29 11:30:28;;;;;;;3.75;0.40;;;16.10;99.90;;;;;;5067575;28;20044;-72
2023/10/29 11:33:08;;;;;;;3.45;0.30;;;16.00;99.90;;;;;;5070557;28;20350;-71
2023/10/29 11:35:34;;;;;;;2.75;0.30;;;15.80;99.90;;;;;;5070321;28;20120;-71
2023/10/29 11:38:21;;;;;;;6.57;0.40;;;16.00;99.90;;;;;;5072716;28;20036;-73
2023/10/29 11:40:47;;;;;;;5.25;0.40;;;15.90;99.90;;;;;;5071109;28;20074;-70
2023/10/29 11:43:22;;;;;;;4.07;0.50;;;16.00;99.90;;;;;;5053669;28;20484;-72
2023/10/29 11:46:07;;;;;;;7.25;0.65;;;15.90;99.90;;;;;;5070673;28;20077;-72
2023/10/29 11:48:33;;;;;;;5.60;0.50;;;16.20;99.90;;;;;;5071628;28;20055;-72
2023/10/29 11:51:11;;;;;;;5.88;0.52;;;16.10;99.90;;;;;;5071716;28;20131;-71
2023/10/29 11:53:37;;;;;;;5.70;0.50;;;16.30;99.90;;;;;;5072129;28;21102;-71
2023/10/29 11:56:09;;;;;;;8.05;0.60;;;16.30;99.90;;;;;;5071712;28;20043;-70
2023/10/29 11:58:36;;;;;;;6.93;0.50;;;16.20;99.90;;;;;;5070963;28;20048;-71
2023/10/29 12:01:02;;;;;;;6.15;0.60;;;15.90;99.90;;;;;;5072858;28;20044;-71
2023/10/29 12:03:32;;;;;;;5.65;0.50;;;15.40;99.90;;;;;;5072601;28;20125;-71
2023/10/29 12:05:58;;;;;;;7.97;0.60;;;15.30;99.90;;;;;;5072260;28;20066;-71
2023/10/29 12:08:26;;;;;;;5.40;0.63;;;15.20;99.90;;;;;;5071110;28;20048;-71
2023/10/29 12:10:53;;;;;;;4.53;0.70;;;15.30;99.90;;;;;;5071885;28;20070;-70
2023/10/29 12:13:19;;;;;;;5.53;0.52;;;15.60;99.90;;;;;;5069745;28;20690;-73
2023/10/29 12:15:58;;;;;;;5.65;0.50;;;15.80;99.90;;;;;;5072347;28;20101;-70
2023/10/29 12:18:27;;;;;;;8.88;0.60;;;15.80;99.90;;;;;;5069005;28;21045;-73
2023/10/29 12:21:16;;;;;;;6.63;0.50;;;15.70;99.90;;;;;;5070813;28;20162;-73
2023/10/29 12:23:42;;;;;;;4.38;0.60;;;15.40;99.90;;;;;;5068773;28;20056;-70
2023/10/29 12:26:10;;;;;;;5.40;0.50;;;15.20;99.90;;;;;;5069365;28;20062;-69
2023/10/29 12:28:37;;;;;;;8.20;0.80;;;15.00;99.90;;;;;;5069931;28;20725;-71
2023/10/29 12:31:03;;;;;;;5.97;0.40;;;15.00;99.90;;;;;;5069543;28;20185;-71
2023/10/29 12:33:33;;;;;;;6.78;0.70;;;15.00;99.90;;;;;;5069872;28;20048;-73
2023/10/29 12:35:59;;;;;;;4.97;0.68;;;14.90;99.90;;;;;;5068862;28;20358;-70
2023/10/29 12:38:26;;;;;;;6.72;0.63;;;14.90;99.90;;;;;;5067125;28;20109;-71
2023/10/29 12:41:08;;;;;;;7.90;0.50;;;14.90;99.90;;;;;;5068221;28;20754;-72
2023/10/29 12:43:36;;;;;;;7.73;0.73;;;14.80;99.90;;;;;;5069351;28;20048;-70
2023/10/29 12:46:03;;;;;;;4.80;0.50;;;14.80;99.90;;;;;;5067098;28;20351;-70